BVY weather

Beverly Municipal Airport
Beverly, Massachusetts, United States

Public forecast

Using degrees Fahrenheit for public forecast. Weather courtesy of forecast.io.

METAR (pilot weather report)

Retrieved 2018/01/20 17:53 UTC (37 minutes ago):

KBVY 201753Z 25012G18KT 10SM BKN120 07/M03 A2965 RMK AO2 SLP038 T00671033 10072 20017 58003

TAF (pilot weather forecast)

Closest forecast is General Edward Lawrence Logan International Airport, 13.8 nm (25.5 km) SSW. Retrieved 2018/01/20 18:27 UTC (3 minutes ago):

TAF KBOS 201720Z 2018/2124 25018G30KT P6SM BKN150 FM202300 26010KT P6SM SCT150 FM211400 28004KT P6SM SCT130